sensor_id;sensor_type;location;lat;lon;timestamp;temperature;humidity
15099;DHT22;33900;53.640;9.942;2022-08-01T00:00:00;21.40;94.00
15099;DHT22;33900;53.640;9.942;2022-08-01T00:02:30;21.40;94.00
15099;DHT22;33900;53.640;9.942;2022-08-01T00:04:56;21.50;94.00
15099;DHT22;33900;53.640;9.942;2022-08-01T00:07:22;21.40;94.00
15099;DHT22;33900;53.640;9.942;2022-08-01T00:09:48;21.40;94.10
15099;DHT22;33900;53.640;9.942;2022-08-01T00:12:13;21.40;94.10
15099;DHT22;33900;53.640;9.942;2022-08-01T00:14:39;21.40;94.10
15099;DHT22;33900;53.640;9.942;2022-08-01T00:17:05;21.40;94.00
15099;DHT22;33900;53.640;9.942;2022-08-01T00:19:30;21.40;94.00
15099;DHT22;33900;53.640;9.942;2022-08-01T00:21:56;21.30;94.10
15099;DHT22;33900;53.640;9.942;2022-08-01T00:24:22;21.40;94.00
15099;DHT22;33900;53.640;9.942;2022-08-01T00:26:48;21.40;94.00
15099;DHT22;33900;53.640;9.942;2022-08-01T00:29:14;21.40;94.10
15099;DHT22;33900;53.640;9.942;2022-08-01T00:31:39;21.40;94.20
15099;DHT22;33900;53.640;9.942;2022-08-01T00:34:05;21.40;94.20
15099;DHT22;33900;53.640;9.942;2022-08-01T00:36:30;21.40;94.10
15099;DHT22;33900;53.640;9.942;2022-08-01T00:38:56;21.30;94.50
15099;DHT22;33900;53.640;9.942;2022-08-01T00:41:22;21.30;94.10
15099;DHT22;33900;53.640;9.942;2022-08-01T00:43:48;21.30;94.10
15099;DHT22;33900;53.640;9.942;2022-08-01T00:46:13;21.30;94.10
15099;DHT22;33900;53.640;9.942;2022-08-01T00:48:39;21.30;94.20
15099;DHT22;33900;53.640;9.942;2022-08-01T00:51:05;21.30;94.20
15099;DHT22;33900;53.640;9.942;2022-08-01T00:53:30;21.30;94.20
15099;DHT22;33900;53.640;9.942;2022-08-01T00:55:56;21.30;94.20
15099;DHT22;33900;53.640;9.942;2022-08-01T00:58:22;21.30;94.20
15099;DHT22;33900;53.640;9.942;2022-08-01T01:00:47;21.30;94.20
15099;DHT22;33900;53.640;9.942;2022-08-01T01:03:13;21.30;94.20
15099;DHT22;33900;53.640;9.942;2022-08-01T01:05:48;21.30;94.20
15099;DHT22;33900;53.640;9.942;2022-08-01T01:08:19;21.30;94.20
15099;DHT22;33900;53.640;9.942;2022-08-01T01:10:57;21.30;94.20
15099;DHT22;33900;53.640;9.942;2022-08-01T01:13:42;21.30;94.20
15099;DHT22;33900;53.640;9.942;2022-08-01T01:16:09;21.30;94.20
15099;DHT22;33900;53.640;9.942;2022-08-01T01:18:42;21.30;94.20
15099;DHT22;33900;53.640;9.942;2022-08-01T01:26:17;21.30;94.20
15099;DHT22;33900;53.640;9.942;2022-08-01T01:29:21;21.30;94.30
15099;DHT22;33900;53.640;9.942;2022-08-01T01:31:40;21.20;94.20
15099;DHT22;33900;53.640;9.942;2022-08-01T01:34:07;21.20;94.20
15099;DHT22;33900;53.640;9.942;2022-08-01T01:36:34;21.20;94.20
15099;DHT22;33900;53.640;9.942;2022-08-01T01:39:00;21.20;94.20
15099;DHT22;33900;53.640;9.942;2022-08-01T01:41:27;21.20;94.20
15099;DHT22;33900;53.640;9.942;2022-08-01T01:43:54;21.20;94.20
15099;DHT22;33900;53.640;9.942;2022-08-01T01:46:22;21.20;94.20
15099;DHT22;33900;53.640;9.942;2022-08-01T01:48:48;21.30;94.30
15099;DHT22;33900;53.640;9.942;2022-08-01T01:51:15;21.30;94.20
15099;DHT22;33900;53.640;9.942;2022-08-01T01:53:41;21.20;94.20
15099;DHT22;33900;53.640;9.942;2022-08-01T01:56:08;21.20;94.30
15099;DHT22;33900;53.640;9.942;2022-08-01T01:58:35;21.30;94.40
15099;DHT22;33900;53.640;9.942;2022-08-01T02:01:02;21.30;94.40
15099;DHT22;33900;53.640;9.942;2022-08-01T02:03:28;21.30;94.40
15099;DHT22;33900;53.640;9.942;2022-08-01T02:05:55;21.20;94.30
15099;DHT22;33900;53.640;9.942;2022-08-01T02:08:21;21.30;94.50
15099;DHT22;33900;53.640;9.942;2022-08-01T02:10:48;21.30;94.40
15099;DHT22;33900;53.640;9.942;2022-08-01T02:13:34;21.20;94.40
15099;DHT22;33900;53.640;9.942;2022-08-01T02:16:01;21.20;94.40
15099;DHT22;33900;53.640;9.942;2022-08-01T02:18:28;21.20;94.40
15099;DHT22;33900;53.640;9.942;2022-08-01T02:20:54;21.20;94.40
15099;DHT22;33900;53.640;9.942;2022-08-01T02:23:20;21.20;94.40
15099;DHT22;33900;53.640;9.942;2022-08-01T02:25:49;21.20;94.40
15099;DHT22;33900;53.640;9.942;2022-08-01T02:28:16;21.20;94.40
15099;DHT22;33900;53.640;9.942;2022-08-01T02:30:43;21.20;94.40
15099;DHT22;33900;53.640;9.942;2022-08-01T02:35:37;21.20;94.40
15099;DHT22;33900;53.640;9.942;2022-08-01T02:38:04;21.20;94.50
15099;DHT22;33900;53.640;9.942;2022-08-01T02:40:32;21.20;94.40
15099;DHT22;33900;53.640;9.942;2022-08-01T02:42:59;21.20;94.40
15099;DHT22;33900;53.640;9.942;2022-08-01T02:45:25;21.20;94.40
15099;DHT22;33900;53.640;9.942;2022-08-01T02:47:51;21.20;94.40
15099;DHT22;33900;53.640;9.942;2022-08-01T02:50:19;21.20;94.40
15099;DHT22;33900;53.640;9.942;2022-08-01T02:52:46;21.20;94.40
15099;DHT22;33900;53.640;9.942;2022-08-01T02:55:13;21.20;94.40
15099;DHT22;33900;53.640;9.942;2022-08-01T03:01:07;21.20;94.50
15099;DHT22;33900;53.640;9.942;2022-08-01T03:03:34;21.20;94.40
15099;DHT22;33900;53.640;9.942;2022-08-01T03:06:00;21.10;94.30
15099;DHT22;33900;53.640;9.942;2022-08-01T03:08:27;21.20;94.40
15099;DHT22;33900;53.640;9.942;2022-08-01T03:10:54;21.10;94.40
15099;DHT22;33900;53.640;9.942;2022-08-01T03:13:20;21.10;94.40
15099;DHT22;33900;53.640;9.942;2022-08-01T03:15:46;21.10;94.40
15099;DHT22;33900;53.640;9.942;2022-08-01T03:18:13;21.10;94.40
15099;DHT22;33900;53.640;9.942;2022-08-01T03:20:39;21.20;94.40
15099;DHT22;33900;53.640;9.942;2022-08-01T03:23:06;21.10;94.40
15099;DHT22;33900;53.640;9.942;2022-08-01T03:25:32;21.10;94.40
15099;DHT22;33900;53.640;9.942;2022-08-01T03:28:01;21.10;94.40
15099;DHT22;33900;53.640;9.942;2022-08-01T03:30:27;21.10;94.30
15099;DHT22;33900;53.640;9.942;2022-08-01T03:32:55;21.10;94.40
15099;DHT22;33900;53.640;9.942;2022-08-01T03:35:20;21.10;94.40
15099;DHT22;33900;53.640;9.942;2022-08-01T03:37:48;21.10;94.30
15099;DHT22;33900;53.640;9.942;2022-08-01T03:42:43;21.10;94.40
15099;DHT22;33900;53.640;9.942;2022-08-01T03:45:10;21.10;94.30
15099;DHT22;33900;53.640;9.942;2022-08-01T03:47:37;21.10;94.40
15099;DHT22;33900;53.640;9.942;2022-08-01T03:50:22;21.10;94.40
15099;DHT22;33900;53.640;9.942;2022-08-01T03:52:50;21.10;94.40
15099;DHT22;33900;53.640;9.942;2022-08-01T03:55:16;21.10;94.40
15099;DHT22;33900;53.640;9.942;2022-08-01T03:57:45;21.10;94.40
15099;DHT22;33900;53.640;9.942;2022-08-01T04:00:11;21.10;94.40
15099;DHT22;33900;53.640;9.942;2022-08-01T04:02:40;21.10;94.30
15099;DHT22;33900;53.640;9.942;2022-08-01T04:05:07;21.10;94.40
15099;DHT22;33900;53.640;9.942;2022-08-01T04:07:33;21.00;94.40
15099;DHT22;33900;53.640;9.942;2022-08-01T04:10:01;21.10;94.40
15099;DHT22;33900;53.640;9.942;2022-08-01T04:12:27;21.00;94.30
15099;DHT22;33900;53.640;9.942;2022-08-01T04:14:52;21.10;94.30
15099;DHT22;33900;53.640;9.942;2022-08-01T04:17:18;21.00;94.30
15099;DHT22;33900;53.640;9.942;2022-08-01T04:19:44;21.10;94.30
15099;DHT22;33900;53.640;9.942;2022-08-01T04:22:10;21.00;94.30
15099;DHT22;33900;53.640;9.942;2022-08-01T04:24:36;21.00;94.30
15099;DHT22;33900;53.640;9.942;2022-08-01T04:27:03;21.00;94.30
15099;DHT22;33900;53.640;9.942;2022-08-01T04:29:30;21.00;94.30
15099;DHT22;33900;53.640;9.942;2022-08-01T04:31:56;21.00;94.40
15099;DHT22;33900;53.640;9.942;2022-08-01T04:34:25;21.00;94.40
15099;DHT22;33900;53.640;9.942;2022-08-01T04:36:54;21.00;94.30
15099;DHT22;33900;53.640;9.942;2022-08-01T04:39:20;21.00;94.40
15099;DHT22;33900;53.640;9.942;2022-08-01T04:41:48;21.00;94.40
15099;DHT22;33900;53.640;9.942;2022-08-01T04:44:15;21.00;94.40
15099;DHT22;33900;53.640;9.942;2022-08-01T04:46:41;21.00;94.30
15099;DHT22;33900;53.640;9.942;2022-08-01T04:49:08;21.00;94.30
15099;DHT22;33900;53.640;9.942;2022-08-01T04:51:51;21.00;94.40
15099;DHT22;33900;53.640;9.942;2022-08-01T04:54:27;21.00;94.30
15099;DHT22;33900;53.640;9.942;2022-08-01T04:56:53;20.90;94.30
15099;DHT22;33900;53.640;9.942;2022-08-01T04:59:25;20.90;94.30
15099;DHT22;33900;53.640;9.942;2022-08-01T05:02:10;20.90;94.40
15099;DHT22;33900;53.640;9.942;2022-08-01T05:04:36;20.90;94.40
15099;DHT22;33900;53.640;9.942;2022-08-01T05:07:03;20.90;94.40
15099;DHT22;33900;53.640;9.942;2022-08-01T05:09:29;20.90;94.40
15099;DHT22;33900;53.640;9.942;2022-08-01T05:11:58;20.90;94.40
15099;DHT22;33900;53.640;9.942;2022-08-01T05:14:35;20.90;94.50
15099;DHT22;33900;53.640;9.942;2022-08-01T05:17:05;20.90;94.40
15099;DHT22;33900;53.640;9.942;2022-08-01T05:19:32;20.90;94.40
15099;DHT22;33900;53.640;9.942;2022-08-01T05:21:58;20.90;94.40
15099;DHT22;33900;53.640;9.942;2022-08-01T05:24:24;20.90;94.40
15099;DHT22;33900;53.640;9.942;2022-08-01T05:26:50;20.90;94.40
15099;DHT22;33900;53.640;9.942;2022-08-01T05:29:15;20.90;94.50
15099;DHT22;33900;53.640;9.942;2022-08-01T05:31:41;20.90;94.50
15099;DHT22;33900;53.640;9.942;2022-08-01T05:34:07;21.00;94.50
15099;DHT22;33900;53.640;9.942;2022-08-01T05:36:36;21.00;94.50
15099;DHT22;33900;53.640;9.942;2022-08-01T05:39:13;21.00;94.50
15099;DHT22;33900;53.640;9.942;2022-08-01T05:41:58;21.00;94.50
15099;DHT22;33900;53.640;9.942;2022-08-01T05:44:46;21.00;94.50
15099;DHT22;33900;53.640;9.942;2022-08-01T05:47:13;21.00;94.50
15099;DHT22;33900;53.640;9.942;2022-08-01T05:49:41;21.00;94.50
15099;DHT22;33900;53.640;9.942;2022-08-01T05:52:07;21.00;94.60
15099;DHT22;33900;53.640;9.942;2022-08-01T05:54:33;21.10;94.60
15099;DHT22;33900;53.640;9.942;2022-08-01T05:56:59;21.10;94.60
15099;DHT22;33900;53.640;9.942;2022-08-01T05:59:30;21.10;94.50
15099;DHT22;33900;53.640;9.942;2022-08-01T06:01:56;21.10;94.50
15099;DHT22;33900;53.640;9.942;2022-08-01T06:04:22;21.10;94.40
15099;DHT22;33900;53.640;9.942;2022-08-01T06:06:51;21.10;94.40
15099;DHT22;33900;53.640;9.942;2022-08-01T06:09:17;21.10;94.50
15099;DHT22;33900;53.640;9.942;2022-08-01T06:11:43;21.10;94.40
15099;DHT22;33900;53.640;9.942;2022-08-01T06:14:11;21.10;94.50
15099;DHT22;33900;53.640;9.942;2022-08-01T06:16:48;21.10;94.50
15099;DHT22;33900;53.640;9.942;2022-08-01T06:19:41;21.10;94.40
15099;DHT22;33900;53.640;9.942;2022-08-01T06:22:10;21.10;94.30
15099;DHT22;33900;53.640;9.942;2022-08-01T06:24:35;21.10;94.20
15099;DHT22;33900;53.640;9.942;2022-08-01T06:27:02;21.00;94.20
15099;DHT22;33900;53.640;9.942;2022-08-01T06:29:29;21.00;94.10
15099;DHT22;33900;53.640;9.942;2022-08-01T06:31:56;21.00;94.10
15099;DHT22;33900;53.640;9.942;2022-08-01T06:34:21;21.00;94.00
15099;DHT22;33900;53.640;9.942;2022-08-01T06:36:49;21.00;94.10
15099;DHT22;33900;53.640;9.942;2022-08-01T06:39:14;21.00;94.10
15099;DHT22;33900;53.640;9.942;2022-08-01T06:41:40;21.00;94.00
15099;DHT22;33900;53.640;9.942;2022-08-01T06:44:07;21.00;94.00
15099;DHT22;33900;53.640;9.942;2022-08-01T06:46:34;21.10;94.00
15099;DHT22;33900;53.640;9.942;2022-08-01T06:49:00;21.10;94.10
15099;DHT22;33900;53.640;9.942;2022-08-01T06:51:26;21.10;94.00
15099;DHT22;33900;53.640;9.942;2022-08-01T06:53:52;21.10;94.10
15099;DHT22;33900;53.640;9.942;2022-08-01T06:56:21;21.00;94.00
15099;DHT22;33900;53.640;9.942;2022-08-01T06:58:50;21.10;94.00
15099;DHT22;33900;53.640;9.942;2022-08-01T07:01:16;21.10;93.90
15099;DHT22;33900;53.640;9.942;2022-08-01T07:03:42;21.00;93.90
15099;DHT22;33900;53.640;9.942;2022-08-01T07:06:07;21.00;93.90
15099;DHT22;33900;53.640;9.942;2022-08-01T07:08:36;21.00;93.90
15099;DHT22;33900;53.640;9.942;2022-08-01T07:11:02;21.00;93.90
15099;DHT22;33900;53.640;9.942;2022-08-01T07:13:31;21.00;93.80
15099;DHT22;33900;53.640;9.942;2022-08-01T07:15:58;21.10;93.80
15099;DHT22;33900;53.640;9.942;2022-08-01T07:18:24;21.10;93.80
15099;DHT22;33900;53.640;9.942;2022-08-01T07:20:50;21.10;93.80
15099;DHT22;33900;53.640;9.942;2022-08-01T07:23:16;21.10;93.70
15099;DHT22;33900;53.640;9.942;2022-08-01T07:25:42;21.10;93.70
15099;DHT22;33900;53.640;9.942;2022-08-01T07:28:09;21.10;93.70
15099;DHT22;33900;53.640;9.942;2022-08-01T07:30:39;21.10;93.70
15099;DHT22;33900;53.640;9.942;2022-08-01T07:33:10;21.10;93.80
15099;DHT22;33900;53.640;9.942;2022-08-01T07:35:36;21.10;93.70
15099;DHT22;33900;53.640;9.942;2022-08-01T07:38:04;21.10;93.70
15099;DHT22;33900;53.640;9.942;2022-08-01T07:47:47;21.10;93.50
15099;DHT22;33900;53.640;9.942;2022-08-01T07:50:15;21.10;93.50
15099;DHT22;33900;53.640;9.942;2022-08-01T07:52:41;21.10;93.50
15099;DHT22;33900;53.640;9.942;2022-08-01T07:55:08;21.20;93.50
15099;DHT22;33900;53.640;9.942;2022-08-01T07:57:34;21.20;93.40
15099;DHT22;33900;53.640;9.942;2022-08-01T08:00:00;21.20;93.40
15099;DHT22;33900;53.640;9.942;2022-08-01T08:02:26;21.20;93.40
15099;DHT22;33900;53.640;9.942;2022-08-01T08:04:52;21.20;93.20
15099;DHT22;33900;53.640;9.942;2022-08-01T08:07:18;21.20;93.00
15099;DHT22;33900;53.640;9.942;2022-08-01T08:09:43;21.20;92.90
15099;DHT22;33900;53.640;9.942;2022-08-01T08:12:09;21.20;93.00
15099;DHT22;33900;53.640;9.942;2022-08-01T08:14:35;21.20;93.00
15099;DHT22;33900;53.640;9.942;2022-08-01T08:17:02;21.20;92.80
15099;DHT22;33900;53.640;9.942;2022-08-01T08:19:53;21.10;92.30
15099;DHT22;33900;53.640;9.942;2022-08-01T08:22:19;21.20;92.20
15099;DHT22;33900;53.640;9.942;2022-08-01T08:24:45;21.20;92.40
15099;DHT22;33900;53.640;9.942;2022-08-01T08:27:11;21.20;92.30
15099;DHT22;33900;53.640;9.942;2022-08-01T08:29:37;21.20;92.00
15099;DHT22;33900;53.640;9.942;2022-08-01T08:32:02;21.10;92.00
15099;DHT22;33900;53.640;9.942;2022-08-01T08:34:28;21.20;92.20
15099;DHT22;33900;53.640;9.942;2022-08-01T08:36:57;21.20;92.40
15099;DHT22;33900;53.640;9.942;2022-08-01T08:39:23;21.30;92.20
15099;DHT22;33900;53.640;9.942;2022-08-01T08:41:49;21.40;92.10
15099;DHT22;33900;53.640;9.942;2022-08-01T08:44:15;21.40;92.00
15099;DHT22;33900;53.640;9.942;2022-08-01T08:46:42;21.40;91.80
15099;DHT22;33900;53.640;9.942;2022-08-01T08:49:09;21.50;92.00
15099;DHT22;33900;53.640;9.942;2022-08-01T08:51:37;21.60;92.00
15099;DHT22;33900;53.640;9.942;2022-08-01T08:54:03;21.70;91.90
15099;DHT22;33900;53.640;9.942;2022-08-01T08:56:30;21.80;91.70
15099;DHT22;33900;53.640;9.942;2022-08-01T08:58:59;21.90;91.50
15099;DHT22;33900;53.640;9.942;2022-08-01T09:01:25;22.00;91.30
15099;DHT22;33900;53.640;9.942;2022-08-01T09:03:51;22.10;91.00
15099;DHT22;33900;53.640;9.942;2022-08-01T09:06:17;22.20;91.00
15099;DHT22;33900;53.640;9.942;2022-08-01T09:08:42;22.40;90.80
15099;DHT22;33900;53.640;9.942;2022-08-01T09:11:08;22.60;89.70
15099;DHT22;33900;53.640;9.942;2022-08-01T09:13:34;22.70;88.30
15099;DHT22;33900;53.640;9.942;2022-08-01T09:15:59;22.80;88.30
15099;DHT22;33900;53.640;9.942;2022-08-01T09:18:32;23.00;88.10
15099;DHT22;33900;53.640;9.942;2022-08-01T09:23:42;23.30;87.20
15099;DHT22;33900;53.640;9.942;2022-08-01T09:35:29;23.50;84.60
15099;DHT22;33900;53.640;9.942;2022-08-01T09:38:18;23.50;84.40
15099;DHT22;33900;53.640;9.942;2022-08-01T09:40:50;23.50;84.30
15099;DHT22;33900;53.640;9.942;2022-08-01T09:43:19;23.50;84.20
15099;DHT22;33900;53.640;9.942;2022-08-01T09:45:44;23.50;84.50
15099;DHT22;33900;53.640;9.942;2022-08-01T09:48:11;23.40;84.50
15099;DHT22;33900;53.640;9.942;2022-08-01T09:50:42;23.40;83.50
15099;DHT22;33900;53.640;9.942;2022-08-01T09:53:08;23.40;83.10
15099;DHT22;33900;53.640;9.942;2022-08-01T09:55:34;23.30;83.50
15099;DHT22;33900;53.640;9.942;2022-08-01T09:58:00;23.30;83.60
15099;DHT22;33900;53.640;9.942;2022-08-01T10:00:26;23.30;83.40
15099;DHT22;33900;53.640;9.942;2022-08-01T10:02:52;23.20;83.00
15099;DHT22;33900;53.640;9.942;2022-08-01T10:05:29;23.20;82.90
15099;DHT22;33900;53.640;9.942;2022-08-01T10:07:58;23.10;84.20
15099;DHT22;33900;53.640;9.942;2022-08-01T10:10:25;23.10;83.90
15099;DHT22;33900;53.640;9.942;2022-08-01T10:12:51;23.10;84.30
15099;DHT22;33900;53.640;9.942;2022-08-01T10:15:16;23.10;83.40
15099;DHT22;33900;53.640;9.942;2022-08-01T10:17:46;23.10;81.70
15099;DHT22;33900;53.640;9.942;2022-08-01T10:20:12;23.10;82.20
15099;DHT22;33900;53.640;9.942;2022-08-01T10:22:38;23.00;80.00
15099;DHT22;33900;53.640;9.942;2022-08-01T10:25:04;23.00;80.10
15099;DHT22;33900;53.640;9.942;2022-08-01T10:27:32;23.00;81.00
15099;DHT22;33900;53.640;9.942;2022-08-01T10:29:59;23.00;81.80
15099;DHT22;33900;53.640;9.942;2022-08-01T10:32:34;23.00;82.10
15099;DHT22;33900;53.640;9.942;2022-08-01T10:35:06;23.00;80.80
15099;DHT22;33900;53.640;9.942;2022-08-01T10:37:34;23.00;80.60
15099;DHT22;33900;53.640;9.942;2022-08-01T10:40:01;23.00;80.80
15099;DHT22;33900;53.640;9.942;2022-08-01T10:42:27;23.00;80.80
15099;DHT22;33900;53.640;9.942;2022-08-01T10:44:53;23.00;80.20
15099;DHT22;33900;53.640;9.942;2022-08-01T10:47:32;23.00;81.10
15099;DHT22;33900;53.640;9.942;2022-08-01T10:50:04;23.00;79.00
15099;DHT22;33900;53.640;9.942;2022-08-01T10:52:32;23.00;79.90
15099;DHT22;33900;53.640;9.942;2022-08-01T10:55:04;23.00;79.80
15099;DHT22;33900;53.640;9.942;2022-08-01T10:57:43;23.00;79.60
15099;DHT22;33900;53.640;9.942;2022-08-01T11:00:09;23.10;77.50
15099;DHT22;33900;53.640;9.942;2022-08-01T11:02:34;23.10;76.50
15099;DHT22;33900;53.640;9.942;2022-08-01T11:05:17;23.10;75.70
15099;DHT22;33900;53.640;9.942;2022-08-01T11:07:48;23.20;76.00
15099;DHT22;33900;53.640;9.942;2022-08-01T11:10:20;23.20;75.80
15099;DHT22;33900;53.640;9.942;2022-08-01T11:12:47;23.20;74.60
15099;DHT22;33900;53.640;9.942;2022-08-01T11:17:39;23.20;74.60
15099;DHT22;33900;53.640;9.942;2022-08-01T11:25:19;23.20;74.60
15099;DHT22;33900;53.640;9.942;2022-08-01T11:27:44;23.20;74.20
15099;DHT22;33900;53.640;9.942;2022-08-01T11:32:46;23.20;74.80
15099;DHT22;33900;53.640;9.942;2022-08-01T11:35:11;23.20;73.10
15099;DHT22;33900;53.640;9.942;2022-08-01T11:37:37;23.20;72.80
15099;DHT22;33900;53.640;9.942;2022-08-01T11:40:20;23.20;73.10
15099;DHT22;33900;53.640;9.942;2022-08-01T11:42:46;23.20;72.90
15099;DHT22;33900;53.640;9.942;2022-08-01T11:45:12;23.20;72.50
15099;DHT22;33900;53.640;9.942;2022-08-01T11:47:44;23.20;71.20
15099;DHT22;33900;53.640;9.942;2022-08-01T11:52:58;23.20;72.60
15099;DHT22;33900;53.640;9.942;2022-08-01T11:55:24;23.30;71.80
15099;DHT22;33900;53.640;9.942;2022-08-01T11:57:49;23.40;71.60
15099;DHT22;33900;53.640;9.942;2022-08-01T12:00:16;23.50;72.40
15099;DHT22;33900;53.640;9.942;2022-08-01T12:02:44;23.60;70.30
15099;DHT22;33900;53.640;9.942;2022-08-01T12:05:11;23.70;69.00
15099;DHT22;33900;53.640;9.942;2022-08-01T12:07:40;23.80;68.70
15099;DHT22;33900;53.640;9.942;2022-08-01T12:10:10;24.00;67.20
15099;DHT22;33900;53.640;9.942;2022-08-01T12:12:37;24.10;67.30
15099;DHT22;33900;53.640;9.942;2022-08-01T12:15:04;24.20;65.80
15099;DHT22;33900;53.640;9.942;2022-08-01T12:17:41;24.40;65.70
15099;DHT22;33900;53.640;9.942;2022-08-01T12:20:07;24.60;67.00
15099;DHT22;33900;53.640;9.942;2022-08-01T12:22:33;24.70;63.60
15099;DHT22;33900;53.640;9.942;2022-08-01T12:25:06;24.70;64.30
15099;DHT22;33900;53.640;9.942;2022-08-01T12:27:33;24.90;63.90
15099;DHT22;33900;53.640;9.942;2022-08-01T12:29:59;25.00;61.80
15099;DHT22;33900;53.640;9.942;2022-08-01T12:34:51;25.20;59.60
15099;DHT22;33900;53.640;9.942;2022-08-01T12:37:17;25.30;57.40
15099;DHT22;33900;53.640;9.942;2022-08-01T12:39:43;25.30;57.00
15099;DHT22;33900;53.640;9.942;2022-08-01T12:42:09;25.40;57.60
15099;DHT22;33900;53.640;9.942;2022-08-01T12:44:36;25.40;57.90
15099;DHT22;33900;53.640;9.942;2022-08-01T12:47:02;25.50;58.80
15099;DHT22;33900;53.640;9.942;2022-08-01T12:49:29;25.60;59.10
15099;DHT22;33900;53.640;9.942;2022-08-01T12:51:54;25.60;57.50
15099;DHT22;33900;53.640;9.942;2022-08-01T12:54:20;25.70;57.50
15099;DHT22;33900;53.640;9.942;2022-08-01T12:56:47;25.80;57.10
15099;DHT22;33900;53.640;9.942;2022-08-01T12:59:19;25.80;56.90
15099;DHT22;33900;53.640;9.942;2022-08-01T13:01:45;25.90;56.10
15099;DHT22;33900;53.640;9.942;2022-08-01T13:04:12;26.00;56.00
15099;DHT22;33900;53.640;9.942;2022-08-01T13:06:37;26.00;56.80
15099;DHT22;33900;53.640;9.942;2022-08-01T13:09:10;26.00;57.30
15099;DHT22;33900;53.640;9.942;2022-08-01T13:11:37;26.10;54.50
15099;DHT22;33900;53.640;9.942;2022-08-01T13:14:03;26.10;53.90
15099;DHT22;33900;53.640;9.942;2022-08-01T13:16:30;26.10;53.30
15099;DHT22;33900;53.640;9.942;2022-08-01T13:18:56;26.20;54.90
15099;DHT22;33900;53.640;9.942;2022-08-01T13:21:23;26.20;55.50
15099;DHT22;33900;53.640;9.942;2022-08-01T13:26:37;26.20;54.90
15099;DHT22;33900;53.640;9.942;2022-08-01T13:29:06;26.20;55.00
15099;DHT22;33900;53.640;9.942;2022-08-01T13:31:33;26.30;53.00
15099;DHT22;33900;53.640;9.942;2022-08-01T13:33:59;26.20;54.20
15099;DHT22;33900;53.640;9.942;2022-08-01T13:36:25;26.20;54.90
15099;DHT22;33900;53.640;9.942;2022-08-01T13:38:53;26.30;54.70
15099;DHT22;33900;53.640;9.942;2022-08-01T13:41:38;26.20;54.00
15099;DHT22;33900;53.640;9.942;2022-08-01T13:44:04;26.30;54.20
15099;DHT22;33900;53.640;9.942;2022-08-01T13:46:30;26.30;53.20
15099;DHT22;33900;53.640;9.942;2022-08-01T13:48:56;26.20;52.90
15099;DHT22;33900;53.640;9.942;2022-08-01T13:51:21;26.20;51.90
15099;DHT22;33900;53.640;9.942;2022-08-01T13:53:47;26.20;52.90
15099;DHT22;33900;53.640;9.942;2022-08-01T13:56:13;26.20;53.80
15099;DHT22;33900;53.640;9.942;2022-08-01T13:58:38;26.30;53.70
15099;DHT22;33900;53.640;9.942;2022-08-01T14:01:04;26.30;53.40
15099;DHT22;33900;53.640;9.942;2022-08-01T14:03:29;26.30;53.40
15099;DHT22;33900;53.640;9.942;2022-08-01T14:05:56;26.40;53.60
15099;DHT22;33900;53.640;9.942;2022-08-01T14:08:21;26.40;53.20
15099;DHT22;33900;53.640;9.942;2022-08-01T14:10:47;26.40;52.20
15099;DHT22;33900;53.640;9.942;2022-08-01T14:13:12;26.30;52.40
15099;DHT22;33900;53.640;9.942;2022-08-01T14:15:39;26.30;51.80
15099;DHT22;33900;53.640;9.942;2022-08-01T14:18:05;26.30;52.40
15099;DHT22;33900;53.640;9.942;2022-08-01T14:20:31;26.30;53.30
15099;DHT22;33900;53.640;9.942;2022-08-01T14:22:57;26.30;49.50
15099;DHT22;33900;53.640;9.942;2022-08-01T14:25:22;26.10;50.30
15099;DHT22;33900;53.640;9.942;2022-08-01T14:27:48;26.00;49.90
15099;DHT22;33900;53.640;9.942;2022-08-01T14:30:14;26.00;51.20
15099;DHT22;33900;53.640;9.942;2022-08-01T14:32:39;25.90;51.20
15099;DHT22;33900;53.640;9.942;2022-08-01T14:35:05;25.80;50.30
15099;DHT22;33900;53.640;9.942;2022-08-01T14:37:32;25.70;51.40
15099;DHT22;33900;53.640;9.942;2022-08-01T14:39:57;25.70;52.00
15099;DHT22;33900;53.640;9.942;2022-08-01T14:42:23;25.70;51.80
15099;DHT22;33900;53.640;9.942;2022-08-01T14:44:49;25.60;51.80
15099;DHT22;33900;53.640;9.942;2022-08-01T14:47:14;25.50;51.80
15099;DHT22;33900;53.640;9.942;2022-08-01T14:49:40;25.50;53.10
15099;DHT22;33900;53.640;9.942;2022-08-01T14:52:06;25.50;53.80
15099;DHT22;33900;53.640;9.942;2022-08-01T14:54:32;25.50;54.10
15099;DHT22;33900;53.640;9.942;2022-08-01T14:56:57;25.50;54.30
15099;DHT22;33900;53.640;9.942;2022-08-01T14:59:23;25.50;53.40
15099;DHT22;33900;53.640;9.942;2022-08-01T15:01:49;25.50;53.50
15099;DHT22;33900;53.640;9.942;2022-08-01T15:04:15;25.50;54.20
15099;DHT22;33900;53.640;9.942;2022-08-01T15:06:42;25.50;55.60
15099;DHT22;33900;53.640;9.942;2022-08-01T15:09:08;25.50;55.60
15099;DHT22;33900;53.640;9.942;2022-08-01T15:11:33;25.50;54.80
15099;DHT22;33900;53.640;9.942;2022-08-01T15:14:00;25.40;54.20
15099;DHT22;33900;53.640;9.942;2022-08-01T15:16:44;25.40;54.40
15099;DHT22;33900;53.640;9.942;2022-08-01T15:19:10;25.50;55.40
15099;DHT22;33900;53.640;9.942;2022-08-01T15:21:38;25.40;54.10
15099;DHT22;33900;53.640;9.942;2022-08-01T15:24:04;25.40;53.60
15099;DHT22;33900;53.640;9.942;2022-08-01T15:26:30;25.40;54.00
15099;DHT22;33900;53.640;9.942;2022-08-01T15:28:56;25.40;54.10
15099;DHT22;33900;53.640;9.942;2022-08-01T15:31:22;25.40;54.70
15099;DHT22;33900;53.640;9.942;2022-08-01T15:33:47;25.40;54.70
15099;DHT22;33900;53.640;9.942;2022-08-01T15:36:13;25.40;55.10
15099;DHT22;33900;53.640;9.942;2022-08-01T15:38:38;25.40;54.70
15099;DHT22;33900;53.640;9.942;2022-08-01T15:41:04;25.40;54.40
15099;DHT22;33900;53.640;9.942;2022-08-01T15:43:29;25.40;54.20
15099;DHT22;33900;53.640;9.942;2022-08-01T15:45:56;25.40;53.40
15099;DHT22;33900;53.640;9.942;2022-08-01T15:48:22;25.40;52.70
15099;DHT22;33900;53.640;9.942;2022-08-01T15:50:48;25.40;53.50
15099;DHT22;33900;53.640;9.942;2022-08-01T15:53:14;25.40;54.30
15099;DHT22;33900;53.640;9.942;2022-08-01T15:55:39;25.40;54.10
15099;DHT22;33900;53.640;9.942;2022-08-01T15:58:05;25.40;54.30
15099;DHT22;33900;53.640;9.942;2022-08-01T16:00:33;25.50;54.40
15099;DHT22;33900;53.640;9.942;2022-08-01T16:02:59;25.50;54.30
15099;DHT22;33900;53.640;9.942;2022-08-01T16:05:25;25.50;54.70
15099;DHT22;33900;53.640;9.942;2022-08-01T16:07:50;25.50;52.80
15099;DHT22;33900;53.640;9.942;2022-08-01T16:10:16;25.50;53.00
15099;DHT22;33900;53.640;9.942;2022-08-01T16:12:42;25.50;53.60
15099;DHT22;33900;53.640;9.942;2022-08-01T16:15:07;25.40;52.90
15099;DHT22;33900;53.640;9.942;2022-08-01T16:17:33;25.40;52.90
15099;DHT22;33900;53.640;9.942;2022-08-01T16:20:01;25.40;52.20
15099;DHT22;33900;53.640;9.942;2022-08-01T16:22:27;25.30;52.50